createdAt,value
2023-05-19T00:00:31.967Z,96030.9219
2023-05-19T00:01:32.869Z,96029.4609
2023-05-19T00:02:33.940Z,96028.9219
2023-05-19T00:03:34.838Z,96028.6172
2023-05-19T00:04:35.907Z,96029.0781
2023-05-19T00:05:37.066Z,96029.3047
2023-05-19T00:06:38.016Z,96030.1562
2023-05-19T00:07:39.014Z,96030.6953
2023-05-19T00:08:40.054Z,96031.1562
2023-05-19T00:09:41.121Z,96030.0000
2023-05-19T00:10:42.186Z,96028.3828
2023-05-19T00:11:43.225Z,96027.6953
2023-05-19T00:12:44.297Z,96026.6953
2023-05-19T00:13:45.287Z,96027.6172
2023-05-19T00:14:46.349Z,96027.3828
2023-05-19T00:15:47.423Z,96027.5391
2023-05-19T00:16:48.409Z,96026.7656
2023-05-19T00:17:49.413Z,96024.8438
2023-05-19T00:18:50.566Z,96022.9219
2023-05-19T00:19:51.490Z,96023.2344
2023-05-19T00:20:52.583Z,96020.4609
2023-05-19T00:21:53.667Z,96020.5391
2023-05-19T00:22:54.631Z,96018.3047
2023-05-19T00:23:55.668Z,96016.2344
2023-05-19T00:24:56.796Z,96014.3828
2023-05-19T00:25:57.812Z,96013.8438
2023-05-19T00:26:58.833Z,96013.6953
2023-05-19T00:27:59.809Z,96012.4609
2023-05-19T00:29:00.863Z,96012.7656
2023-05-19T00:30:01.892Z,96013.0000
2023-05-19T00:31:03.010Z,96014.2344
2023-05-19T00:32:04.026Z,96013.0000
2023-05-19T00:33:05.137Z,96013.9219
2023-05-19T00:34:06.074Z,96010.6172
2023-05-19T00:35:07.097Z,96010.0781
2023-05-19T00:36:08.210Z,96011.1562
2023-05-19T00:37:09.252Z,96010.8438
2023-05-19T00:38:10.233Z,96008.6172
2023-05-19T00:39:11.329Z,96007.6172
2023-05-19T00:40:12.315Z,96007.3828
2023-05-19T00:41:13.429Z,96007.0781
2023-05-19T00:42:14.507Z,96005.6953
2023-05-19T00:43:15.429Z,96004.6953
2023-05-19T00:44:16.490Z,96002.0000
2023-05-19T00:45:17.568Z,95999.1562
2023-05-19T00:46:18.649Z,96000.0000
2023-05-19T00:47:19.679Z,96000.5391
2023-05-19T00:48:20.650Z,96001.5391
2023-05-19T00:49:21.710Z,96000.7656
2023-05-19T00:50:22.746Z,96000.6953
2023-05-19T00:51:23.890Z,95997.5391
2023-05-19T00:52:24.906Z,95996.8438
2023-05-19T00:53:25.852Z,95995.3828
2023-05-19T00:54:26.912Z,95995.2344
2023-05-19T00:55:27.999Z,95995.8438
2023-05-19T00:56:29.099Z,95993.3828
2023-05-19T00:57:30.106Z,95992.5391
2023-05-19T00:58:31.219Z,95991.9219
2023-05-19T00:59:32.153Z,95991.5391
2023-05-19T01:00:33.421Z,95989.9219
2023-05-19T01:01:34.385Z,95989.3047
2023-05-19T01:02:35.392Z,95989.1562
2023-05-19T01:03:36.473Z,95989.0781
2023-05-19T01:04:37.308Z,95990.0781
2023-05-19T01:05:38.412Z,95990.3047
2023-05-19T01:06:39.452Z,95988.1562
2023-05-19T01:07:40.509Z,95987.7656
2023-05-19T01:08:41.522Z,95985.6172
2023-05-19T01:09:42.552Z,95984.4609
2023-05-19T01:10:43.579Z,95984.0000
2023-05-19T01:11:44.687Z,95983.4609
2023-05-19T01:12:45.697Z,95983.3828
2023-05-19T01:13:46.725Z,95985.5391
2023-05-19T01:14:47.757Z,95985.1562
2023-05-19T01:15:48.838Z,95984.4609
2023-05-19T01:16:49.938Z,95983.9219
2023-05-19T01:17:50.935Z,95984.5391
2023-05-19T01:18:51.937Z,95984.9219
2023-05-19T01:19:53.011Z,95983.0000
2023-05-19T01:20:54.027Z,95985.0781
2023-05-19T01:21:55.106Z,95984.8438
2023-05-19T01:22:56.113Z,95985.2344
2023-05-19T01:23:57.200Z,95986.1562
2023-05-19T01:24:58.150Z,95987.9219
2023-05-19T01:25:59.185Z,95989.3828
2023-05-19T01:27:00.331Z,95990.0781
2023-05-19T01:28:01.370Z,95990.6953
2023-05-19T01:29:02.379Z,95989.3047
2023-05-19T01:30:03.407Z,95990.3828
2023-05-19T01:31:04.446Z,95990.4609
2023-05-19T01:32:05.599Z,95991.7656
2023-05-19T01:33:06.610Z,95992.0781
2023-05-19T01:34:07.663Z,95993.3047
2023-05-19T01:35:08.594Z,95994.1562
2023-05-19T01:36:09.741Z,95994.3047
2023-05-19T01:37:10.786Z,95994.1562
2023-05-19T01:38:11.791Z,95995.1562
2023-05-19T01:39:12.792Z,95993.3047
2023-05-19T01:40:13.813Z,95991.6953
2023-05-19T01:41:14.948Z,95992.7656
2023-05-19T01:42:15.935Z,95991.6953
2023-05-19T01:43:16.985Z,95989.6953
2023-05-19T01:44:18.082Z,95989.9219
2023-05-19T01:45:19.100Z,95991.3047
2023-05-19T01:46:20.098Z,95991.7656
2023-05-19T01:47:21.239Z,95990.7656
2023-05-19T01:48:22.200Z,95990.4609
2023-05-19T01:49:23.219Z,95990.0000
2023-05-19T01:50:24.264Z,95990.3047
2023-05-19T01:51:25.296Z,95990.0781
2023-05-19T01:52:26.377Z,95990.3047
2023-05-19T01:53:27.416Z,95990.6172
2023-05-19T01:54:28.416Z,95991.3828
2023-05-19T01:55:29.473Z,95993.0000
2023-05-19T01:56:30.494Z,95992.5391
2023-05-19T01:57:31.593Z,95992.8438
2023-05-19T01:58:32.694Z,95993.3828
2023-05-19T01:59:33.638Z,95994.8438
2023-05-19T02:00:34.815Z,95993.5391
2023-05-19T02:01:35.753Z,95992.7656
2023-05-19T02:02:36.839Z,95993.5391
2023-05-19T02:03:37.857Z,95994.6953
2023-05-19T02:04:38.877Z,95995.5391
2023-05-19T02:05:39.940Z,95995.1562
2023-05-19T02:06:40.960Z,95994.5391
2023-05-19T02:07:42.017Z,95994.2344
2023-05-19T02:08:43.126Z,95992.6953
2023-05-19T02:09:44.037Z,95991.7656
2023-05-19T02:10:45.137Z,95992.5391
2023-05-19T02:11:46.113Z,95991.8438
2023-05-19T02:12:47.191Z,95992.6953
2023-05-19T02:13:48.268Z,95990.9219
2023-05-19T02:14:49.270Z,95988.8438
2023-05-19T02:15:50.374Z,95989.0000
2023-05-19T02:16:51.350Z,95989.6172
2023-05-19T02:17:52.461Z,95989.9219
2023-05-19T02:18:53.541Z,95990.1562
2023-05-19T02:19:54.469Z,95989.0000
2023-05-19T02:20:55.494Z,95988.6953
2023-05-19T02:21:56.550Z,95989.2344
2023-05-19T02:22:57.656Z,95988.7656
2023-05-19T02:23:58.723Z,95988.1562
2023-05-19T02:24:59.673Z,95987.3047
2023-05-19T02:26:00.717Z,95987.2344
2023-05-19T02:27:01.736Z,95986.4609
2023-05-19T02:28:02.838Z,95984.1562
2023-05-19T02:29:03.858Z,95982.3828
2023-05-19T02:30:04.845Z,95982.4609
2023-05-19T02:31:05.945Z,95980.6953
2023-05-19T02:32:07.027Z,95979.0781
2023-05-19T02:33:08.082Z,95977.6953
2023-05-19T02:34:09.053Z,95976.6172
2023-05-19T02:35:10.025Z,95974.4609
2023-05-19T02:36:11.085Z,95973.4609
2023-05-19T02:37:12.118Z,95973.0000
2023-05-19T02:38:13.225Z,95972.2344
2023-05-19T02:39:14.296Z,95972.0000
2023-05-19T02:40:15.338Z,95970.2344
2023-05-19T02:41:16.311Z,95966.9219
2023-05-19T02:42:17.334Z,95969.6953
2023-05-19T02:43:18.426Z,95966.8438
2023-05-19T02:44:19.446Z,95966.6953
2023-05-19T02:45:20.470Z,95965.5391
2023-05-19T02:46:21.559Z,95966.7656
2023-05-19T02:47:22.605Z,95966.4609
2023-05-19T02:48:23.605Z,95967.6172
2023-05-19T02:49:24.656Z,95965.9219
2023-05-19T02:50:25.652Z,95965.5391
2023-05-19T02:51:26.709Z,95965.6172
2023-05-19T02:52:27.727Z,95966.3828
2023-05-19T02:53:28.806Z,95966.9219
2023-05-19T02:54:29.855Z,95968.5391
2023-05-19T02:55:30.865Z,95971.2344
2023-05-19T02:56:31.907Z,95966.8438
2023-05-19T02:57:32.964Z,95967.6172
2023-05-19T02:58:34.040Z,95968.0000
2023-05-19T02:59:35.115Z,95970.3828
2023-05-19T03:00:36.060Z,95968.6953
2023-05-19T03:01:37.185Z,95966.9219
2023-05-19T03:02:38.313Z,95967.1562
2023-05-19T03:03:39.329Z,95967.5391
2023-05-19T03:04:40.253Z,95968.3828
2023-05-19T03:05:41.327Z,95965.3047
2023-05-19T03:06:42.307Z,95963.6953
2023-05-19T03:07:43.425Z,95963.1562
2023-05-19T03:08:44.429Z,95962.4609
2023-05-19T03:09:45.522Z,95961.8438
2023-05-19T03:10:46.465Z,95958.6172
2023-05-19T03:11:47.489Z,95957.8438
2023-05-19T03:12:48.610Z,95960.3047
2023-05-19T03:13:49.617Z,95958.8438
2023-05-19T03:14:50.665Z,95959.0781
2023-05-19T03:15:51.698Z,95958.4609
2023-05-19T03:16:52.918Z,95958.2344
2023-05-19T03:17:53.784Z,95960.5391
2023-05-19T03:18:54.903Z,95960.9219
2023-05-19T03:19:55.899Z,95961.7656
2023-05-19T03:20:56.922Z,95956.6172
2023-05-19T03:21:57.893Z,95957.2344
2023-05-19T03:22:59.018Z,95959.2344
2023-05-19T03:24:00.100Z,95957.7656
2023-05-19T03:25:01.087Z,95958.8438
2023-05-19T03:26:02.054Z,95960.1562
2023-05-19T03:27:03.194Z,95959.3047
2023-05-19T03:28:04.152Z,95961.3828
2023-05-19T03:29:05.240Z,95960.0000
2023-05-19T03:30:06.726Z,95960.2344
2023-05-19T03:31:07.337Z,95958.0000
2023-05-19T03:32:08.296Z,95956.0781
2023-05-19T03:33:09.522Z,95955.0000
2023-05-19T03:34:10.395Z,95956.7656
2023-05-19T03:35:11.512Z,95958.2344
2023-05-19T03:36:12.496Z,95960.0000
2023-05-19T03:37:13.519Z,95960.5391
2023-05-19T03:38:14.536Z,95961.1562
2023-05-19T03:39:15.692Z,95961.4609
2023-05-19T03:40:16.691Z,95963.6172
2023-05-19T03:41:17.733Z,95962.6953
2023-05-19T03:42:18.697Z,95967.1562
2023-05-19T03:43:19.755Z,95969.2344
2023-05-19T03:44:20.869Z,95969.6953
2023-05-19T03:45:21.923Z,95971.3047
2023-05-19T03:46:22.983Z,95973.5391
2023-05-19T03:47:23.959Z,95978.9219
2023-05-19T03:48:24.959Z,95978.2344
2023-05-19T03:49:26.026Z,95977.2344
2023-05-19T03:50:27.157Z,95977.4609
2023-05-19T03:51:28.069Z,95978.0000
2023-05-19T03:52:29.137Z,95976.9219
2023-05-19T03:53:30.148Z,95977.0781
2023-05-19T03:54:31.274Z,95975.0781
2023-05-19T03:55:32.257Z,95973.9219
2023-05-19T03:56:33.311Z,95974.2344
2023-05-19T03:57:34.309Z,95973.8438
2023-05-19T03:58:35.392Z,95974.6953
2023-05-19T03:59:36.421Z,95974.6172
2023-05-19T04:00:37.558Z,95974.6953
2023-05-19T04:01:38.500Z,95974.8438
2023-05-19T04:02:39.654Z,95977.1562
2023-05-19T04:03:40.618Z,95977.8438
2023-05-19T04:04:41.682Z,95976.7656
2023-05-19T04:05:42.709Z,95977.8438
2023-05-19T04:06:43.695Z,95976.4609
2023-05-19T04:07:44.715Z,95977.1562
2023-05-19T04:08:45.800Z,95980.0000
2023-05-19T04:09:46.860Z,95981.5391
2023-05-19T04:10:47.907Z,95982.0000
2023-05-19T04:11:48.931Z,95980.2344
2023-05-19T04:12:49.954Z,95981.7656
2023-05-19T04:13:51.030Z,95980.5391
2023-05-19T04:14:52.095Z,95981.0781
2023-05-19T04:15:53.230Z,95981.9219
2023-05-19T04:16:54.151Z,95981.6953
2023-05-19T04:17:55.225Z,95981.0781
2023-05-19T04:18:56.304Z,95981.3047
2023-05-19T04:19:57.324Z,95980.4609
2023-05-19T04:20:58.334Z,95982.3828
2023-05-19T04:21:59.349Z,95984.3047
2023-05-19T04:23:00.403Z,95985.5391
2023-05-19T04:24:01.455Z,95986.6172
2023-05-19T04:25:02.569Z,95987.0000
2023-05-19T04:26:03.596Z,95989.3828
2023-05-19T04:27:04.657Z,95988.4609
2023-05-19T04:28:05.618Z,95988.2344
2023-05-19T04:29:06.735Z,95989.3047
2023-05-19T04:30:07.818Z,95989.8438
2023-05-19T04:31:08.860Z,95990.2344
2023-05-19T04:32:09.871Z,95987.9219
2023-05-19T04:33:10.870Z,95989.1562
2023-05-19T04:34:11.928Z,95985.8438
2023-05-19T04:35:13.086Z,95986.2344
2023-05-19T04:36:14.058Z,95986.6953
2023-05-19T04:37:15.076Z,95989.6172
2023-05-19T04:38:16.054Z,95989.9219
2023-05-19T04:39:17.126Z,95991.7656
2023-05-19T04:40:18.233Z,95993.1562
2023-05-19T04:41:19.283Z,95993.4609
2023-05-19T04:42:20.295Z,95997.0000
2023-05-19T04:43:21.297Z,95996.8438
2023-05-19T04:44:22.336Z,95997.0000
2023-05-19T04:45:23.421Z,95996.8438
2023-05-19T04:46:24.585Z,95998.6953
2023-05-19T04:47:25.516Z,95998.6953
2023-05-19T04:48:26.591Z,95999.0000
2023-05-19T04:49:27.594Z,95998.5391
2023-05-19T04:50:28.700Z,95999.3828
2023-05-19T04:51:30.665Z,96000.8438
2023-05-19T04:52:30.676Z,96000.8438
2023-05-19T04:53:31.737Z,96000.3047
2023-05-19T04:54:32.871Z,96001.1562
2023-05-19T04:55:33.879Z,96002.3828
2023-05-19T04:56:34.984Z,96003.6953
2023-05-19T04:57:35.913Z,96005.5391
2023-05-19T04:58:36.954Z,96005.3828
2023-05-19T04:59:37.985Z,96006.0781
2023-05-19T05:00:39.090Z,96006.8438
2023-05-19T05:01:40.207Z,96006.5391
2023-05-19T05:02:41.186Z,96005.5391
2023-05-19T05:03:42.245Z,96006.6953
2023-05-19T05:04:43.230Z,96010.3047
2023-05-19T05:05:44.323Z,96010.7656
2023-05-19T05:06:45.352Z,96012.0781
2023-05-19T05:07:46.327Z,96010.0000
2023-05-19T05:08:47.403Z,96011.6172
2023-05-19T05:09:48.476Z,96011.6953
2023-05-19T05:10:49.547Z,96010.8438
2023-05-19T05:11:50.572Z,96010.0781
2023-05-19T05:12:51.676Z,96010.0000
2023-05-19T05:13:52.632Z,96008.6953
2023-05-19T05:14:53.728Z,96009.0781
2023-05-19T05:15:54.783Z,96008.5391
2023-05-19T05:16:55.811Z,96006.4609
2023-05-19T05:17:56.939Z,96006.3828
2023-05-19T05:18:57.904Z,96007.0781
2023-05-19T05:19:58.906Z,96007.2344
2023-05-19T05:20:59.947Z,96005.8438
2023-05-19T05:22:01.052Z,96006.2344
2023-05-19T05:23:01.990Z,96005.6172
2023-05-19T05:24:03.006Z,96005.5391
2023-05-19T05:25:04.109Z,96006.3047
2023-05-19T05:26:05.157Z,96005.2344
2023-05-19T05:27:06.270Z,96006.1562
2023-05-19T05:28:07.330Z,96004.5391
2023-05-19T05:29:08.333Z,96003.1562
2023-05-19T05:30:09.329Z,96001.6172
2023-05-19T05:31:10.461Z,96002.5391
2023-05-19T05:32:11.493Z,96001.3047
2023-05-19T05:33:12.748Z,96001.1562
2023-05-19T05:34:13.530Z,96000.8438
2023-05-19T05:35:14.563Z,96000.9219
2023-05-19T05:36:15.665Z,95999.6172
2023-05-19T05:37:16.697Z,95998.6172
2023-05-19T05:38:17.736Z,96000.0781
2023-05-19T05:39:18.750Z,96005.0781
2023-05-19T05:40:19.774Z,95999.6953
2023-05-19T05:41:20.823Z,96001.0000
2023-05-19T05:42:21.950Z,96001.8438
2023-05-19T05:43:22.910Z,95999.3828
2023-05-19T05:44:23.939Z,96000.3047
2023-05-19T05:45:24.997Z,96001.1562
2023-05-19T05:46:26.195Z,96001.5391
2023-05-19T05:47:27.153Z,96002.0000
2023-05-19T05:48:28.108Z,96003.7656
2023-05-19T05:49:29.145Z,96006.1562
2023-05-19T05:50:30.187Z,96005.0781
2023-05-19T05:51:31.249Z,96007.5391
2023-05-19T05:52:32.294Z,96005.8438
2023-05-19T05:53:33.295Z,96004.5391
2023-05-19T05:54:34.337Z,96003.4609
2023-05-19T05:55:35.546Z,96001.3047
2023-05-19T05:56:36.513Z,96001.0000
2023-05-19T05:57:37.565Z,96002.0781
2023-05-19T05:58:38.517Z,96001.1562
2023-05-19T05:59:39.554Z,96007.0781
2023-05-19T06:00:40.593Z,96009.3828
2023-05-19T06:01:41.721Z,96007.3828
2023-05-19T06:02:42.820Z,96006.4609
2023-05-19T06:03:43.835Z,96006.6953
2023-05-19T06:04:44.751Z,96005.0781
2023-05-19T06:05:45.829Z,96003.3047
2023-05-19T06:06:46.862Z,96003.0000
2023-05-19T06:07:47.940Z,96003.5391
2023-05-19T06:08:48.906Z,96005.5391
2023-05-19T06:09:49.953Z,96006.0781
2023-05-19T06:10:51.018Z,96009.0781
2023-05-19T06:11:52.075Z,96008.6953
2023-05-19T06:12:53.130Z,96008.1562
2023-05-19T06:13:54.113Z,96008.7656
2023-05-19T06:14:55.138Z,96009.3828
2023-05-19T06:15:56.208Z,96009.3047
2023-05-19T06:16:57.389Z,96006.1562
2023-05-19T06:17:58.367Z,96011.4609
2023-05-19T06:18:59.452Z,96008.8438
2023-05-19T06:20:00.340Z,96007.7656
2023-05-19T06:21:01.503Z,96009.6172
2023-05-19T06:22:02.524Z,96008.9219
2023-05-19T06:23:03.544Z,96010.0781
2023-05-19T06:24:04.538Z,96006.6953
2023-05-19T06:25:05.632Z,96008.4609
2023-05-19T06:26:06.611Z,96006.3047
2023-05-19T06:27:07.825Z,96004.6953
2023-05-19T06:28:08.796Z,96005.7656
2023-05-19T06:29:09.730Z,96007.1562
2023-05-19T06:30:10.788Z,96006.1562
2023-05-19T06:31:11.841Z,96007.0781
2023-05-19T06:32:12.880Z,96006.2344
2023-05-19T06:33:14.002Z,96004.3047
2023-05-19T06:34:14.943Z,96006.4609
2023-05-19T06:35:16.065Z,96005.3047
2023-05-19T06:36:17.119Z,96008.8438
2023-05-19T06:37:18.216Z,96013.7656
2023-05-19T06:38:19.162Z,96015.6172
2023-05-19T06:39:20.192Z,96018.9219
2023-05-19T06:40:21.200Z,96016.6953
2023-05-19T06:41:22.391Z,96015.3047
2023-05-19T06:42:23.327Z,96015.2344
2023-05-19T06:43:24.396Z,96012.5391
2023-05-19T06:44:25.356Z,96011.1562
2023-05-19T06:45:26.439Z,96010.6953
2023-05-19T06:46:27.460Z,96014.0781
2023-05-19T06:47:28.566Z,96016.3828
2023-05-19T06:48:29.631Z,96017.3047
2023-05-19T06:49:30.612Z,96018.3047
2023-05-19T06:50:31.843Z,96019.2344
2023-05-19T06:51:32.670Z,96022.1562
2023-05-19T06:52:33.860Z,96022.3047
2023-05-19T06:53:34.816Z,96024.4609
2023-05-19T06:54:35.775Z,96022.0000
2023-05-19T06:55:41.400Z,96024.3047
2023-05-19T06:56:37.908Z,96021.0781
2023-05-19T06:57:38.946Z,96019.6953
2023-05-19T06:58:39.921Z,96020.4609
2023-05-19T06:59:40.901Z,96022.3828
2023-05-19T07:00:41.965Z,96024.6953
2023-05-19T07:01:43.077Z,96024.5391
2023-05-19T07:02:44.152Z,96024.6172
2023-05-19T07:03:45.156Z,96027.6172
2023-05-19T07:04:46.105Z,96028.0781
2023-05-19T07:05:47.133Z,96025.0781
2023-05-19T07:06:48.185Z,96023.3828
2023-05-19T07:07:49.253Z,96028.0000
2023-05-19T07:08:51.816Z,96027.4609
2023-05-19T07:09:51.312Z,96023.9219
2023-05-19T07:10:52.380Z,96028.2344
2023-05-19T07:11:53.373Z,96026.4609
2023-05-19T07:12:54.492Z,96024.9219
2023-05-19T07:13:55.616Z,96028.0000
2023-05-19T07:14:56.590Z,96026.5391
2023-05-19T07:15:57.601Z,96031.3047
2023-05-19T07:16:58.607Z,96031.8438
2023-05-19T07:17:59.724Z,96034.3828
2023-05-19T07:19:00.800Z,96032.3047
2023-05-19T07:20:01.731Z,96030.2344
2023-05-19T07:21:02.788Z,96028.6172
2023-05-19T07:22:03.822Z,96025.9219
2023-05-19T07:23:04.901Z,96025.3047
2023-05-19T07:24:05.932Z,96025.0000
2023-05-19T07:25:06.993Z,96023.6953
2023-05-19T07:26:07.965Z,96024.3828
2023-05-19T07:27:09.071Z,96023.7656
2023-05-19T07:28:10.135Z,96024.1562
2023-05-19T07:29:11.204Z,96021.2344
2023-05-19T07:30:12.223Z,96022.0000
2023-05-19T07:31:13.208Z,96018.5391
2023-05-19T07:32:14.344Z,96014.7656
2023-05-19T07:33:15.395Z,96013.0000
2023-05-19T07:34:16.349Z,96012.7656
2023-05-19T07:35:17.415Z,96011.4609
2023-05-19T07:36:18.405Z,96013.3047
2023-05-19T07:37:19.499Z,96015.1562
2023-05-19T07:38:20.505Z,96015.7656
2023-05-19T07:39:21.609Z,96021.3828
2023-05-19T07:40:22.594Z,96021.1562
2023-05-19T07:41:23.640Z,96019.3828
2023-05-19T07:42:24.699Z,96021.0781
2023-05-19T07:43:25.696Z,96019.1562
2023-05-19T07:44:26.750Z,96020.1562
2023-05-19T07:45:27.848Z,96019.6172
2023-05-19T07:46:28.993Z,96018.8438
2023-05-19T07:47:30.023Z,96020.0000
2023-05-19T07:48:30.890Z,96018.3828
2023-05-19T07:49:32.011Z,96021.3047
2023-05-19T07:50:33.140Z,96017.1562
2023-05-19T07:51:34.019Z,96017.6172
2023-05-19T07:52:35.083Z,96021.6172
2023-05-19T07:53:36.135Z,96021.0781
2023-05-19T07:54:37.164Z,96022.6953
2023-05-19T07:55:38.208Z,96022.1562
2023-05-19T07:56:39.214Z,96023.1562
2023-05-19T07:57:40.540Z,96024.7656
2023-05-19T07:58:41.332Z,96023.5391
2023-05-19T07:59:42.386Z,96026.0781
2023-05-19T08:00:43.435Z,96022.3828
2023-05-19T08:01:44.418Z,96024.5391
2023-05-19T08:02:45.493Z,96027.9219
2023-05-19T08:03:46.545Z,96025.6953
2023-05-19T08:04:47.680Z,96021.7656
2023-05-19T08:05:48.657Z,96024.2344
2023-05-19T08:06:49.591Z,96022.3047
2023-05-19T08:07:50.691Z,96018.4609
2023-05-19T08:08:51.747Z,96017.2344
2023-05-19T08:09:52.817Z,96016.8438
2023-05-19T08:10:53.847Z,96014.7656
2023-05-19T08:11:54.873Z,96014.1562
2023-05-19T08:12:56.138Z,96016.0781
2023-05-19T08:13:56.926Z,96017.0781
2023-05-19T08:14:59.734Z,96015.6953
2023-05-19T08:15:59.090Z,96015.1562
2023-05-19T08:17:00.039Z,96013.5391
2023-05-19T08:18:01.151Z,96013.0000
2023-05-19T08:19:02.173Z,96016.0781
2023-05-19T08:20:03.219Z,96011.5391
2023-05-19T08:21:04.247Z,96015.6953
2023-05-19T08:22:05.253Z,96008.9219
2023-05-19T08:23:06.271Z,96009.9219
2023-05-19T08:24:07.352Z,96009.6953
2023-05-19T08:25:08.438Z,96010.0000
2023-05-19T08:26:09.505Z,96009.4609
2023-05-19T08:27:10.482Z,96003.6953
2023-05-19T08:28:11.620Z,96004.0781
2023-05-19T08:29:12.522Z,96002.1562
2023-05-19T08:30:13.645Z,96004.2344
2023-05-19T08:31:14.704Z,96000.9219
2023-05-19T08:32:15.698Z,95997.3047
2023-05-19T08:33:16.701Z,95996.1562
2023-05-19T08:34:17.746Z,95994.2344
2023-05-19T08:35:18.865Z,95996.0000
2023-05-19T08:36:20.055Z,95996.0781
2023-05-19T08:37:20.907Z,95998.7656
2023-05-19T08:38:21.954Z,95997.7656
2023-05-19T08:39:22.945Z,95996.5391
2023-05-19T08:40:24.067Z,95992.5391
2023-05-19T08:41:25.128Z,95991.2344
2023-05-19T08:42:26.152Z,95992.6172
2023-05-19T08:43:27.148Z,95994.0000
2023-05-19T08:44:28.161Z,95994.2344
2023-05-19T08:45:29.465Z,95999.2344
2023-05-19T08:46:30.309Z,95993.0781
2023-05-19T08:47:31.337Z,95998.2344
2023-05-19T08:48:32.323Z,95992.6172
2023-05-19T08:49:33.346Z,95989.0781
2023-05-19T08:50:34.741Z,95988.6953
2023-05-19T08:51:35.497Z,95989.5391
2023-05-19T08:52:36.557Z,95988.4609
2023-05-19T08:53:37.519Z,95990.4609
2023-05-19T08:54:38.540Z,95990.1562
2023-05-19T08:55:39.625Z,95990.1562
2023-05-19T08:56:40.660Z,95992.0000
2023-05-19T08:57:41.699Z,95991.9219
2023-05-19T08:58:42.786Z,95994.1562
2023-05-19T08:59:43.781Z,95990.9219
2023-05-19T09:00:44.848Z,95988.0781
2023-05-19T09:01:46.027Z,95986.3047
2023-05-19T09:02:55.467Z,95985.2344
2023-05-19T09:03:47.974Z,95987.5391
2023-05-19T09:04:49.015Z,95985.8438
2023-05-19T09:05:50.073Z,95990.0000
2023-05-19T09:06:51.054Z,95993.1562
2023-05-19T09:07:52.165Z,95989.3047
2023-05-19T09:08:53.381Z,95991.7656
2023-05-19T09:09:54.137Z,95992.9219
2023-05-19T09:10:55.264Z,95999.3047
2023-05-19T09:11:56.306Z,95998.7656
2023-05-19T09:12:57.302Z,96000.6953
2023-05-19T09:13:58.316Z,95997.0781
2023-05-19T09:14:59.374Z,95994.9219
2023-05-19T09:16:00.390Z,95992.0781
2023-05-19T09:17:01.575Z,95991.7656
2023-05-19T09:18:02.558Z,95993.6953
2023-05-19T09:19:03.620Z,95996.1562
2023-05-19T09:20:04.574Z,95992.2344
2023-05-19T09:21:05.603Z,95995.2344
2023-05-19T09:22:06.718Z,95993.6172
2023-05-19T09:23:07.703Z,95996.1562
2023-05-19T09:24:08.726Z,95992.6172
2023-05-19T09:25:09.740Z,95993.9219
2023-05-19T09:26:10.752Z,95994.6172
2023-05-19T09:27:11.859Z,95994.3828
2023-05-19T09:28:12.943Z,95996.9219
2023-05-19T09:29:13.992Z,95997.8438
2023-05-19T09:30:15.007Z,95996.3047
2023-05-19T09:31:16.042Z,95996.6172
2023-05-19T09:32:17.096Z,95994.3047
2023-05-19T09:33:18.172Z,95992.9219
2023-05-19T09:34:19.298Z,95990.6172
2023-05-19T09:35:20.229Z,95989.1562
2023-05-19T09:36:21.182Z,95986.7656
2023-05-19T09:37:22.323Z,95988.2344
2023-05-19T09:38:23.300Z,95987.2344
2023-05-19T09:39:24.401Z,95987.1562
2023-05-19T09:40:25.479Z,95987.7656
2023-05-19T09:41:26.422Z,95991.0000
2023-05-19T09:42:27.458Z,95993.8438
2023-05-19T09:43:28.639Z,95991.5391
2023-05-19T09:44:29.718Z,95994.2344
2023-05-19T09:45:30.665Z,95994.3047
2023-05-19T09:46:31.656Z,95995.7656
2023-05-19T09:47:32.666Z,96000.9219
2023-05-19T09:48:33.706Z,95996.3047
2023-05-19T09:49:34.749Z,95994.7656
2023-05-19T09:50:35.836Z,95998.2344
2023-05-19T09:51:36.795Z,95995.9219
2023-05-19T09:52:37.833Z,95994.6172
2023-05-19T09:53:38.978Z,95993.6172
2023-05-19T09:54:39.939Z,95993.5391
2023-05-19T09:55:40.944Z,95993.5391
2023-05-19T09:56:42.012Z,95993.4609
2023-05-19T09:57:43.022Z,95994.1562
2023-05-19T09:58:44.088Z,95994.6172
2023-05-19T09:59:45.160Z,95996.2344
2023-05-19T10:00:46.193Z,95996.2344
2023-05-19T10:01:47.221Z,95998.2344
2023-05-19T10:02:48.287Z,95999.3828
2023-05-19T10:03:49.263Z,95996.6953
2023-05-19T10:04:50.365Z,95992.5391
2023-05-19T10:05:51.397Z,95990.6953
2023-05-19T10:06:52.420Z,95989.8438
2023-05-19T10:07:53.418Z,95991.6172
2023-05-19T10:08:54.462Z,95993.0000
2023-05-19T10:09:56.670Z,95995.3047
2023-05-19T10:10:56.665Z,95989.3047
2023-05-19T10:11:57.614Z,95986.5391
2023-05-19T10:12:58.647Z,95985.4609
2023-05-19T10:13:59.701Z,95986.3828
2023-05-19T10:15:00.734Z,95987.8438
2023-05-19T10:16:02.139Z,95989.8438
2023-05-19T10:17:03.021Z,95988.0000
2023-05-19T10:18:03.876Z,95988.5391
2023-05-19T10:19:04.966Z,95988.5391
2023-05-19T10:20:05.931Z,95988.5391
2023-05-19T10:21:07.012Z,95987.2344
2023-05-19T10:22:08.032Z,95987.0781
2023-05-19T10:23:09.195Z,95988.5391
2023-05-19T10:24:11.472Z,95988.0781
2023-05-19T10:25:11.152Z,95989.1562
2023-05-19T10:26:12.207Z,95986.6172
2023-05-19T10:27:13.272Z,95987.6953
2023-05-19T10:28:14.256Z,95989.3047
2023-05-19T10:29:15.301Z,95985.9219
2023-05-19T10:30:16.735Z,95984.4609
2023-05-19T10:31:17.418Z,95983.4609
2023-05-19T10:32:18.494Z,95984.0781
2023-05-19T10:33:19.584Z,95986.3047
2023-05-19T10:34:20.496Z,95982.6953
2023-05-19T10:35:21.572Z,95981.0000
2023-05-19T10:36:22.615Z,95982.0000
2023-05-19T10:37:23.659Z,95978.5391
2023-05-19T10:38:24.666Z,95978.5391
2023-05-19T10:39:25.741Z,95979.6172
2023-05-19T10:40:26.783Z,95974.1562
2023-05-19T10:41:27.830Z,95976.2344
2023-05-19T10:42:28.880Z,95974.9219
2023-05-19T10:43:29.875Z,95974.6953
2023-05-19T10:44:30.944Z,95977.5391
2023-05-19T10:45:32.189Z,95977.2344
2023-05-19T10:46:33.062Z,95982.5391
2023-05-19T10:47:34.135Z,95979.6953
2023-05-19T10:48:35.167Z,95977.4609
2023-05-19T10:49:36.113Z,95977.8438
2023-05-19T10:50:37.190Z,95981.6172
2023-05-19T10:51:38.248Z,95980.3828
2023-05-19T10:52:39.295Z,95977.3047
2023-05-19T10:53:40.351Z,95980.5391
2023-05-19T10:54:41.372Z,95976.1562
2023-05-19T10:55:42.380Z,95974.6172
2023-05-19T10:56:43.431Z,95975.0781
2023-05-19T10:57:44.463Z,95975.9219
2023-05-19T10:58:45.570Z,95980.2344
2023-05-19T10:59:46.545Z,95979.1562
2023-05-19T11:00:47.608Z,95979.2344
2023-05-19T11:01:48.633Z,95980.0781
2023-05-19T11:02:49.848Z,95980.0781
2023-05-19T11:03:50.839Z,95981.4609
2023-05-19T11:04:52.149Z,95983.2344
2023-05-19T11:05:52.799Z,95983.8438
2023-05-19T11:06:53.910Z,95984.3047
2023-05-19T11:07:54.903Z,95983.2344
2023-05-19T11:08:55.988Z,95979.0000
2023-05-19T11:09:56.984Z,95978.3047
2023-05-19T11:10:58.029Z,95979.6953
2023-05-19T11:11:59.042Z,95975.0000
2023-05-19T11:13:00.104Z,95977.2344
2023-05-19T11:14:01.206Z,95981.6953
2023-05-19T11:15:02.204Z,95977.6172
2023-05-19T11:16:03.193Z,95973.5391
2023-05-19T11:17:04.323Z,95972.6172